To NAV CANADA Home Page Login to a new session Search on AWWS site Feedback and Comments Disclaimer Vers la page française équivalente Tips FAQ What's new on the site To the Forecasts and Observations / NOTAM section To "File a Flight Plan" website Publications and other links Update of the User's profile FIC Telephone Numbers My Weather Data Folder Route Weather Data Regional Weather Data Local Weather Data To the Forecasts and Observations / NOTAM section
Request Generated 01/21/2017 at 02:12:23 UTC . Weather information available at that time is displayed.

METAR/TAF

CALGARY INTL/AB    

METAR CYYC 210200Z 00000KT 15SM FEW250 M01/M08 A2931 RMK CI1 CI TR
SLP967=
METAR CYYC 210100Z VRB02KT 40SM FEW250 M01/M08 A2930 RMK CI1 CI TR
SLP965=
METAR CYYC 210000Z 15005KT 40SM FEW050 FEW110 FEW250 02/M07 A2929 RMK
SC1AC1CI1 SC TR AC TR CI TR SLP955=

TAF CYYC 202348Z 2100/2124 14005KT P6SM FEW250
BECMG 2102/2104 23005KT
FM210600 29005KT P6SM SKC
FM211800 32005KT P6SM FEW250
BECMG 2119/2121 34015KT
FM212200 34012G22KT P6SM SCT010 BKN070 TEMPO 2122/2124 6SM -SHSN
BKN010
RMK NXT FCST BY 210300Z=
Your time UTC time
Weather data provided by Environment Canada and NAV CANADA